sensor_id;sensor_type;location;lat;lon;timestamp;P1;durP1;ratioP1;P2;durP2;ratioP2
66751;SDS011;53663;42.676;23.238;2022-08-19T00:00:19;4.65;;;3.50;;
66751;SDS011;53663;42.676;23.238;2022-08-19T00:02:44;5.25;;;3.28;;
66751;SDS011;53663;42.676;23.238;2022-08-19T00:05:12;7.40;;;3.33;;
66751;SDS011;53663;42.676;23.238;2022-08-19T00:07:41;23.83;;;4.10;;
66751;SDS011;53663;42.676;23.238;2022-08-19T00:10:08;7.90;;;3.95;;
66751;SDS011;53663;42.676;23.238;2022-08-19T00:12:35;6.97;;;3.45;;
66751;SDS011;53663;42.676;23.238;2022-08-19T00:15:01;4.20;;;3.30;;
66751;SDS011;53663;42.676;23.238;2022-08-19T00:17:26;9.98;;;3.45;;
66751;SDS011;53663;42.676;23.238;2022-08-19T00:19:52;8.05;;;3.55;;
66751;SDS011;53663;42.676;23.238;2022-08-19T00:22:17;5.97;;;3.90;;
66751;SDS011;53663;42.676;23.238;2022-08-19T00:24:46;5.40;;;3.72;;
66751;SDS011;53663;42.676;23.238;2022-08-19T00:27:12;6.05;;;3.55;;
66751;SDS011;53663;42.676;23.238;2022-08-19T00:29:38;5.75;;;3.65;;
66751;SDS011;53663;42.676;23.238;2022-08-19T00:32:04;6.50;;;3.42;;
66751;SDS011;53663;42.676;23.238;2022-08-19T00:34:30;7.45;;;3.47;;
66751;SDS011;53663;42.676;23.238;2022-08-19T00:36:56;6.38;;;3.17;;
66751;SDS011;53663;42.676;23.238;2022-08-19T00:39:22;6.03;;;3.22;;
66751;SDS011;53663;42.676;23.238;2022-08-19T00:41:48;5.95;;;3.72;;
66751;SDS011;53663;42.676;23.238;2022-08-19T00:44:22;8.10;;;3.60;;
66751;SDS011;53663;42.676;23.238;2022-08-19T00:46:50;4.70;;;3.30;;
66751;SDS011;53663;42.676;23.238;2022-08-19T00:51:44;4.93;;;3.40;;
66751;SDS011;53663;42.676;23.238;2022-08-19T00:54:11;6.25;;;3.88;;
66751;SDS011;53663;42.676;23.238;2022-08-19T00:56:37;5.80;;;3.33;;
66751;SDS011;53663;42.676;23.238;2022-08-19T00:59:03;4.82;;;3.50;;
66751;SDS011;53663;42.676;23.238;2022-08-19T01:01:37;5.32;;;3.00;;
66751;SDS011;53663;42.676;23.238;2022-08-19T01:04:05;6.35;;;3.50;;
66751;SDS011;53663;42.676;23.238;2022-08-19T01:06:32;5.63;;;3.42;;
66751;SDS011;53663;42.676;23.238;2022-08-19T01:09:00;6.50;;;3.50;;
66751;SDS011;53663;42.676;23.238;2022-08-19T01:11:27;5.93;;;3.65;;
66751;SDS011;53663;42.676;23.238;2022-08-19T01:13:53;4.50;;;3.45;;
66751;SDS011;53663;42.676;23.238;2022-08-19T01:16:20;5.45;;;3.45;;
66751;SDS011;53663;42.676;23.238;2022-08-19T01:18:48;3.90;;;3.28;;
66751;SDS011;53663;42.676;23.238;2022-08-19T01:21:37;4.35;;;3.45;;
66751;SDS011;53663;42.676;23.238;2022-08-19T01:24:03;9.43;;;4.03;;
66751;SDS011;53663;42.676;23.238;2022-08-19T01:26:29;5.28;;;3.45;;
66751;SDS011;53663;42.676;23.238;2022-08-19T01:28:56;5.03;;;3.25;;
66751;SDS011;53663;42.676;23.238;2022-08-19T01:31:24;5.30;;;3.40;;
66751;SDS011;53663;42.676;23.238;2022-08-19T01:33:51;4.25;;;3.20;;
66751;SDS011;53663;42.676;23.238;2022-08-19T01:36:23;5.90;;;3.70;;
66751;SDS011;53663;42.676;23.238;2022-08-19T01:38:50;6.30;;;3.10;;
66751;SDS011;53663;42.676;23.238;2022-08-19T01:41:16;5.68;;;3.83;;
66751;SDS011;53663;42.676;23.238;2022-08-19T01:43:43;4.78;;;3.63;;
66751;SDS011;53663;42.676;23.238;2022-08-19T01:46:08;4.90;;;3.40;;
66751;SDS011;53663;42.676;23.238;2022-08-19T01:48:36;5.25;;;3.50;;
66751;SDS011;53663;42.676;23.238;2022-08-19T01:51:08;9.85;;;3.88;;
66751;SDS011;53663;42.676;23.238;2022-08-19T01:53:35;6.05;;;3.80;;
66751;SDS011;53663;42.676;23.238;2022-08-19T01:56:02;5.55;;;4.13;;
66751;SDS011;53663;42.676;23.238;2022-08-19T01:58:34;5.55;;;3.60;;
66751;SDS011;53663;42.676;23.238;2022-08-19T02:01:03;5.78;;;4.10;;
66751;SDS011;53663;42.676;23.238;2022-08-19T02:03:30;6.55;;;4.20;;
66751;SDS011;53663;42.676;23.238;2022-08-19T02:05:56;6.15;;;4.15;;
66751;SDS011;53663;42.676;23.238;2022-08-19T02:08:28;11.45;;;4.13;;
66751;SDS011;53663;42.676;23.238;2022-08-19T02:10:55;10.00;;;4.13;;
66751;SDS011;53663;42.676;23.238;2022-08-19T02:13:21;6.65;;;4.47;;
66751;SDS011;53663;42.676;23.238;2022-08-19T02:15:47;6.60;;;3.97;;
66751;SDS011;53663;42.676;23.238;2022-08-19T02:18:13;7.78;;;3.83;;
66751;SDS011;53663;42.676;23.238;2022-08-19T02:20:40;7.00;;;3.90;;
66751;SDS011;53663;42.676;23.238;2022-08-19T02:23:06;7.60;;;4.38;;
66751;SDS011;53663;42.676;23.238;2022-08-19T02:25:32;5.97;;;4.03;;
66751;SDS011;53663;42.676;23.238;2022-08-19T02:27:58;7.53;;;4.03;;
66751;SDS011;53663;42.676;23.238;2022-08-19T02:30:24;6.82;;;4.03;;
66751;SDS011;53663;42.676;23.238;2022-08-19T02:32:50;7.07;;;3.85;;
66751;SDS011;53663;42.676;23.238;2022-08-19T02:35:16;4.63;;;3.83;;
66751;SDS011;53663;42.676;23.238;2022-08-19T02:37:42;6.93;;;4.30;;
66751;SDS011;53663;42.676;23.238;2022-08-19T02:40:28;7.55;;;4.07;;
66751;SDS011;53663;42.676;23.238;2022-08-19T02:42:55;7.53;;;4.03;;
66751;SDS011;53663;42.676;23.238;2022-08-19T02:45:21;6.53;;;4.28;;
66751;SDS011;53663;42.676;23.238;2022-08-19T02:47:47;8.52;;;4.22;;
66751;SDS011;53663;42.676;23.238;2022-08-19T02:50:12;12.05;;;4.03;;
66751;SDS011;53663;42.676;23.238;2022-08-19T02:52:38;10.68;;;4.28;;
66751;SDS011;53663;42.676;23.238;2022-08-19T02:55:04;7.22;;;4.13;;
66751;SDS011;53663;42.676;23.238;2022-08-19T02:57:30;7.78;;;4.80;;
66751;SDS011;53663;42.676;23.238;2022-08-19T02:59:56;8.95;;;4.53;;
66751;SDS011;53663;42.676;23.238;2022-08-19T03:02:22;10.57;;;4.97;;
66751;SDS011;53663;42.676;23.238;2022-08-19T03:04:48;7.30;;;4.55;;
66751;SDS011;53663;42.676;23.238;2022-08-19T03:07:14;9.35;;;4.90;;
66751;SDS011;53663;42.676;23.238;2022-08-19T03:09:40;8.73;;;4.20;;
66751;SDS011;53663;42.676;23.238;2022-08-19T03:12:07;9.35;;;5.03;;
66751;SDS011;53663;42.676;23.238;2022-08-19T03:14:34;8.15;;;4.07;;
66751;SDS011;53663;42.676;23.238;2022-08-19T03:17:00;7.72;;;4.32;;
66751;SDS011;53663;42.676;23.238;2022-08-19T03:19:26;7.40;;;4.20;;
66751;SDS011;53663;42.676;23.238;2022-08-19T03:21:52;9.00;;;4.50;;
66751;SDS011;53663;42.676;23.238;2022-08-19T03:24:18;8.85;;;4.50;;
66751;SDS011;53663;42.676;23.238;2022-08-19T03:26:47;8.55;;;4.82;;
66751;SDS011;53663;42.676;23.238;2022-08-19T03:29:15;12.65;;;4.88;;
66751;SDS011;53663;42.676;23.238;2022-08-19T03:31:42;9.43;;;4.70;;
66751;SDS011;53663;42.676;23.238;2022-08-19T03:34:08;9.23;;;4.85;;
66751;SDS011;53663;42.676;23.238;2022-08-19T03:36:36;8.02;;;4.60;;
66751;SDS011;53663;42.676;23.238;2022-08-19T03:39:03;7.43;;;4.78;;
66751;SDS011;53663;42.676;23.238;2022-08-19T03:41:30;7.47;;;5.20;;
66751;SDS011;53663;42.676;23.238;2022-08-19T03:43:57;12.23;;;4.80;;
66751;SDS011;53663;42.676;23.238;2022-08-19T03:46:25;11.48;;;4.80;;
66751;SDS011;53663;42.676;23.238;2022-08-19T03:48:53;8.02;;;4.30;;
66751;SDS011;53663;42.676;23.238;2022-08-19T03:51:22;10.07;;;4.75;;
66751;SDS011;53663;42.676;23.238;2022-08-19T03:53:54;6.50;;;4.50;;
66751;SDS011;53663;42.676;23.238;2022-08-19T03:56:21;11.35;;;4.93;;
66751;SDS011;53663;42.676;23.238;2022-08-19T03:58:47;9.02;;;4.85;;
66751;SDS011;53663;42.676;23.238;2022-08-19T04:01:15;10.95;;;5.50;;
66751;SDS011;53663;42.676;23.238;2022-08-19T04:03:43;9.97;;;4.70;;
66751;SDS011;53663;42.676;23.238;2022-08-19T04:06:15;9.25;;;4.65;;
66751;SDS011;53663;42.676;23.238;2022-08-19T04:08:43;21.75;;;5.63;;
66751;SDS011;53663;42.676;23.238;2022-08-19T04:11:12;6.78;;;4.70;;
66751;SDS011;53663;42.676;23.238;2022-08-19T04:13:39;11.63;;;4.63;;
66751;SDS011;53663;42.676;23.238;2022-08-19T04:16:07;10.30;;;4.97;;
66751;SDS011;53663;42.676;23.238;2022-08-19T04:18:34;14.90;;;5.10;;
66751;SDS011;53663;42.676;23.238;2022-08-19T04:21:00;10.93;;;4.95;;
66751;SDS011;53663;42.676;23.238;2022-08-19T04:23:27;7.28;;;4.85;;
66751;SDS011;53663;42.676;23.238;2022-08-19T04:25:53;10.27;;;5.13;;
66751;SDS011;53663;42.676;23.238;2022-08-19T04:28:19;13.90;;;6.00;;
66751;SDS011;53663;42.676;23.238;2022-08-19T04:30:46;11.77;;;5.10;;
66751;SDS011;53663;42.676;23.238;2022-08-19T04:33:14;14.63;;;5.03;;
66751;SDS011;53663;42.676;23.238;2022-08-19T04:35:43;16.38;;;4.93;;
66751;SDS011;53663;42.676;23.238;2022-08-19T04:38:10;14.32;;;5.18;;
66751;SDS011;53663;42.676;23.238;2022-08-19T04:40:44;14.82;;;5.47;;
66751;SDS011;53663;42.676;23.238;2022-08-19T04:43:31;8.48;;;4.88;;
66751;SDS011;53663;42.676;23.238;2022-08-19T04:45:57;8.98;;;4.68;;
66751;SDS011;53663;42.676;23.238;2022-08-19T04:48:23;9.50;;;5.07;;
66751;SDS011;53663;42.676;23.238;2022-08-19T04:50:55;7.47;;;4.63;;
66751;SDS011;53663;42.676;23.238;2022-08-19T04:55:55;10.57;;;5.00;;
66751;SDS011;53663;42.676;23.238;2022-08-19T04:58:22;12.98;;;5.10;;
66751;SDS011;53663;42.676;23.238;2022-08-19T05:00:49;28.40;;;5.63;;
66751;SDS011;53663;42.676;23.238;2022-08-19T05:03:15;8.40;;;4.72;;
66751;SDS011;53663;42.676;23.238;2022-08-19T05:05:42;12.38;;;5.25;;
66751;SDS011;53663;42.676;23.238;2022-08-19T05:08:14;8.77;;;4.80;;
66751;SDS011;53663;42.676;23.238;2022-08-19T05:10:44;7.47;;;4.78;;
66751;SDS011;53663;42.676;23.238;2022-08-19T05:13:14;10.75;;;4.50;;
66751;SDS011;53663;42.676;23.238;2022-08-19T05:15:42;10.60;;;4.30;;
66751;SDS011;53663;42.676;23.238;2022-08-19T05:18:08;8.05;;;4.60;;
66751;SDS011;53663;42.676;23.238;2022-08-19T05:20:52;13.10;;;4.47;;
66751;SDS011;53663;42.676;23.238;2022-08-19T05:23:36;12.52;;;4.68;;
66751;SDS011;53663;42.676;23.238;2022-08-19T05:26:02;10.15;;;4.72;;
66751;SDS011;53663;42.676;23.238;2022-08-19T05:28:29;8.75;;;4.65;;
66751;SDS011;53663;42.676;23.238;2022-08-19T05:30:55;16.95;;;4.78;;
66751;SDS011;53663;42.676;23.238;2022-08-19T05:33:21;8.18;;;4.85;;
66751;SDS011;53663;42.676;23.238;2022-08-19T05:35:47;6.50;;;4.35;;
66751;SDS011;53663;42.676;23.238;2022-08-19T05:38:14;11.13;;;4.55;;
66751;SDS011;53663;42.676;23.238;2022-08-19T05:40:41;8.60;;;5.00;;
66751;SDS011;53663;42.676;23.238;2022-08-19T05:45:39;12.98;;;5.00;;
66751;SDS011;53663;42.676;23.238;2022-08-19T05:48:06;12.27;;;5.30;;
66751;SDS011;53663;42.676;23.238;2022-08-19T05:50:31;12.75;;;5.15;;
66751;SDS011;53663;42.676;23.238;2022-08-19T05:52:57;11.68;;;5.18;;
66751;SDS011;53663;42.676;23.238;2022-08-19T05:55:22;15.80;;;4.82;;
66751;SDS011;53663;42.676;23.238;2022-08-19T05:57:48;15.18;;;5.43;;
66751;SDS011;53663;42.676;23.238;2022-08-19T06:00:14;15.35;;;5.07;;
66751;SDS011;53663;42.676;23.238;2022-08-19T06:02:41;17.23;;;6.28;;
66751;SDS011;53663;42.676;23.238;2022-08-19T06:05:07;13.40;;;6.15;;
66751;SDS011;53663;42.676;23.238;2022-08-19T06:07:38;14.98;;;6.38;;
66751;SDS011;53663;42.676;23.238;2022-08-19T06:10:05;13.45;;;6.90;;
66751;SDS011;53663;42.676;23.238;2022-08-19T06:12:33;14.60;;;6.55;;
66751;SDS011;53663;42.676;23.238;2022-08-19T06:15:01;15.07;;;6.35;;
66751;SDS011;53663;42.676;23.238;2022-08-19T06:17:29;15.38;;;6.22;;
66751;SDS011;53663;42.676;23.238;2022-08-19T06:19:55;21.40;;;6.22;;
66751;SDS011;53663;42.676;23.238;2022-08-19T06:22:21;14.60;;;5.88;;
66751;SDS011;53663;42.676;23.238;2022-08-19T06:24:48;17.60;;;6.22;;
66751;SDS011;53663;42.676;23.238;2022-08-19T06:27:17;18.17;;;6.25;;
66751;SDS011;53663;42.676;23.238;2022-08-19T06:29:43;27.85;;;6.70;;
66751;SDS011;53663;42.676;23.238;2022-08-19T06:32:11;17.45;;;7.07;;
66751;SDS011;53663;42.676;23.238;2022-08-19T06:34:37;20.48;;;6.22;;
66751;SDS011;53663;42.676;23.238;2022-08-19T06:37:04;13.95;;;5.97;;
66751;SDS011;53663;42.676;23.238;2022-08-19T06:39:32;14.38;;;6.43;;
66751;SDS011;53663;42.676;23.238;2022-08-19T06:42:04;14.68;;;6.40;;
66751;SDS011;53663;42.676;23.238;2022-08-19T06:47:01;18.48;;;6.45;;
66751;SDS011;53663;42.676;23.238;2022-08-19T06:49:28;19.05;;;7.50;;
66751;SDS011;53663;42.676;23.238;2022-08-19T06:51:56;15.38;;;6.03;;
66751;SDS011;53663;42.676;23.238;2022-08-19T06:54:23;17.83;;;6.40;;
66751;SDS011;53663;42.676;23.238;2022-08-19T06:56:49;16.92;;;6.80;;
66751;SDS011;53663;42.676;23.238;2022-08-19T06:59:16;24.77;;;8.27;;
66751;SDS011;53663;42.676;23.238;2022-08-19T07:01:44;17.55;;;7.18;;
66751;SDS011;53663;42.676;23.238;2022-08-19T07:04:13;18.10;;;7.15;;
66751;SDS011;53663;42.676;23.238;2022-08-19T07:06:41;14.98;;;7.18;;
66751;SDS011;53663;42.676;23.238;2022-08-19T07:09:07;14.07;;;7.53;;
66751;SDS011;53663;42.676;23.238;2022-08-19T07:11:34;17.60;;;7.45;;
66751;SDS011;53663;42.676;23.238;2022-08-19T07:14:00;16.60;;;7.38;;
66751;SDS011;53663;42.676;23.238;2022-08-19T07:16:27;18.73;;;7.88;;
66751;SDS011;53663;42.676;23.238;2022-08-19T07:18:53;21.50;;;7.38;;
66751;SDS011;53663;42.676;23.238;2022-08-19T07:21:23;21.33;;;6.65;;
66751;SDS011;53663;42.676;23.238;2022-08-19T07:23:53;16.08;;;8.02;;
66751;SDS011;53663;42.676;23.238;2022-08-19T07:26:25;21.85;;;7.22;;
66751;SDS011;53663;42.676;23.238;2022-08-19T07:28:53;17.20;;;7.13;;
66751;SDS011;53663;42.676;23.238;2022-08-19T07:31:21;13.18;;;8.00;;
66751;SDS011;53663;42.676;23.238;2022-08-19T07:33:48;18.50;;;7.93;;
66751;SDS011;53663;42.676;23.238;2022-08-19T07:36:16;30.05;;;14.45;;
66751;SDS011;53663;42.676;23.238;2022-08-19T07:38:45;19.60;;;7.88;;
66751;SDS011;53663;42.676;23.238;2022-08-19T07:41:17;17.40;;;6.70;;
66751;SDS011;53663;42.676;23.238;2022-08-19T07:43:45;16.38;;;7.28;;
66751;SDS011;53663;42.676;23.238;2022-08-19T07:46:12;26.75;;;7.15;;
66751;SDS011;53663;42.676;23.238;2022-08-19T07:48:39;18.13;;;7.15;;
66751;SDS011;53663;42.676;23.238;2022-08-19T07:51:06;17.77;;;8.50;;
66751;SDS011;53663;42.676;23.238;2022-08-19T07:53:33;17.23;;;7.25;;
66751;SDS011;53663;42.676;23.238;2022-08-19T07:56:00;12.43;;;6.65;;
66751;SDS011;53663;42.676;23.238;2022-08-19T07:58:29;13.80;;;6.22;;
66751;SDS011;53663;42.676;23.238;2022-08-19T08:00:57;20.20;;;7.35;;
66751;SDS011;53663;42.676;23.238;2022-08-19T08:03:23;15.75;;;6.80;;
66751;SDS011;53663;42.676;23.238;2022-08-19T08:06:09;22.52;;;7.28;;
66751;SDS011;53663;42.676;23.238;2022-08-19T08:08:54;12.00;;;6.82;;
66751;SDS011;53663;42.676;23.238;2022-08-19T08:11:53;20.33;;;6.30;;
66751;SDS011;53663;42.676;23.238;2022-08-19T08:14:24;19.80;;;6.70;;
66751;SDS011;53663;42.676;23.238;2022-08-19T08:16:51;15.35;;;6.35;;
66751;SDS011;53663;42.676;23.238;2022-08-19T08:19:18;15.65;;;5.85;;
66751;SDS011;53663;42.676;23.238;2022-08-19T08:21:45;11.98;;;5.95;;
66751;SDS011;53663;42.676;23.238;2022-08-19T08:24:12;25.67;;;6.10;;
66751;SDS011;53663;42.676;23.238;2022-08-19T08:26:38;18.27;;;6.68;;
66751;SDS011;53663;42.676;23.238;2022-08-19T08:29:04;12.63;;;6.50;;
66751;SDS011;53663;42.676;23.238;2022-08-19T08:31:30;11.52;;;5.70;;
66751;SDS011;53663;42.676;23.238;2022-08-19T08:33:55;10.98;;;5.32;;
66751;SDS011;53663;42.676;23.238;2022-08-19T08:36:21;15.45;;;5.10;;
66751;SDS011;53663;42.676;23.238;2022-08-19T08:38:46;12.57;;;5.40;;
66751;SDS011;53663;42.676;23.238;2022-08-19T08:44:16;18.20;;;4.93;;
66751;SDS011;53663;42.676;23.238;2022-08-19T08:46:48;15.93;;;4.65;;
66751;SDS011;53663;42.676;23.238;2022-08-19T08:49:20;6.93;;;4.20;;
66751;SDS011;53663;42.676;23.238;2022-08-19T08:52:16;11.00;;;4.55;;
66751;SDS011;53663;42.676;23.238;2022-08-19T08:54:48;18.60;;;5.63;;
66751;SDS011;53663;42.676;23.238;2022-08-19T08:57:36;9.10;;;3.97;;
66751;SDS011;53663;42.676;23.238;2022-08-19T09:02:50;11.10;;;4.97;;
66751;SDS011;53663;42.676;23.238;2022-08-19T09:05:15;8.00;;;3.55;;
66751;SDS011;53663;42.676;23.238;2022-08-19T09:08:04;6.93;;;4.07;;
66751;SDS011;53663;42.676;23.238;2022-08-19T09:10:37;13.07;;;4.40;;
66751;SDS011;53663;42.676;23.238;2022-08-19T09:13:07;15.90;;;4.28;;
66751;SDS011;53663;42.676;23.238;2022-08-19T09:15:44;8.38;;;4.85;;
66751;SDS011;53663;42.676;23.238;2022-08-19T09:18:13;12.35;;;5.03;;
66751;SDS011;53663;42.676;23.238;2022-08-19T09:20:39;9.95;;;3.25;;
66751;SDS011;53663;42.676;23.238;2022-08-19T09:23:04;5.97;;;3.80;;
66751;SDS011;53663;42.676;23.238;2022-08-19T09:25:30;9.40;;;3.72;;
66751;SDS011;53663;42.676;23.238;2022-08-19T09:27:59;5.70;;;3.40;;
66751;SDS011;53663;42.676;23.238;2022-08-19T09:30:29;4.85;;;3.03;;
66751;SDS011;53663;42.676;23.238;2022-08-19T09:32:57;11.00;;;3.83;;
66751;SDS011;53663;42.676;23.238;2022-08-19T09:35:25;4.88;;;3.33;;
66751;SDS011;53663;42.676;23.238;2022-08-19T09:37:52;9.02;;;3.55;;
66751;SDS011;53663;42.676;23.238;2022-08-19T09:40:18;12.02;;;3.25;;
66751;SDS011;53663;42.676;23.238;2022-08-19T09:42:44;7.70;;;3.58;;
66751;SDS011;53663;42.676;23.238;2022-08-19T09:45:12;8.13;;;3.90;;
66751;SDS011;53663;42.676;23.238;2022-08-19T09:47:42;8.77;;;4.22;;
66751;SDS011;53663;42.676;23.238;2022-08-19T09:50:09;9.48;;;3.88;;
66751;SDS011;53663;42.676;23.238;2022-08-19T09:52:36;9.20;;;3.90;;
66751;SDS011;53663;42.676;23.238;2022-08-19T09:55:03;7.47;;;3.38;;
66751;SDS011;53663;42.676;23.238;2022-08-19T09:57:30;6.55;;;3.10;;
66751;SDS011;53663;42.676;23.238;2022-08-19T09:59:56;10.05;;;3.25;;
66751;SDS011;53663;42.676;23.238;2022-08-19T10:02:21;10.48;;;3.78;;
66751;SDS011;53663;42.676;23.238;2022-08-19T10:04:47;8.98;;;3.83;;
66751;SDS011;53663;42.676;23.238;2022-08-19T10:07:31;10.95;;;3.42;;
66751;SDS011;53663;42.676;23.238;2022-08-19T10:09:56;4.45;;;3.30;;
66751;SDS011;53663;42.676;23.238;2022-08-19T10:12:22;9.55;;;4.03;;
66751;SDS011;53663;42.676;23.238;2022-08-19T10:14:48;10.90;;;5.75;;
66751;SDS011;53663;42.676;23.238;2022-08-19T10:17:13;9.32;;;4.43;;
66751;SDS011;53663;42.676;23.238;2022-08-19T10:19:39;12.75;;;3.22;;
66751;SDS011;53663;42.676;23.238;2022-08-19T10:22:06;13.40;;;7.07;;
66751;SDS011;53663;42.676;23.238;2022-08-19T10:24:32;13.55;;;5.80;;
66751;SDS011;53663;42.676;23.238;2022-08-19T10:26:59;9.32;;;3.30;;
66751;SDS011;53663;42.676;23.238;2022-08-19T10:29:29;9.05;;;3.90;;
66751;SDS011;53663;42.676;23.238;2022-08-19T10:31:56;5.78;;;3.50;;
66751;SDS011;53663;42.676;23.238;2022-08-19T10:34:22;12.30;;;3.88;;
66751;SDS011;53663;42.676;23.238;2022-08-19T10:36:48;9.52;;;3.50;;
66751;SDS011;53663;42.676;23.238;2022-08-19T10:39:14;8.95;;;3.90;;
66751;SDS011;53663;42.676;23.238;2022-08-19T10:41:40;9.52;;;3.90;;
66751;SDS011;53663;42.676;23.238;2022-08-19T10:44:09;6.07;;;3.63;;
66751;SDS011;53663;42.676;23.238;2022-08-19T10:46:37;10.85;;;3.67;;
66751;SDS011;53663;42.676;23.238;2022-08-19T10:49:06;9.93;;;3.92;;
66751;SDS011;53663;42.676;23.238;2022-08-19T10:51:33;5.55;;;3.40;;
66751;SDS011;53663;42.676;23.238;2022-08-19T10:54:18;11.35;;;4.00;;
66751;SDS011;53663;42.676;23.238;2022-08-19T10:56:44;8.35;;;3.90;;
66751;SDS011;53663;42.676;23.238;2022-08-19T10:59:19;7.75;;;3.88;;
66751;SDS011;53663;42.676;23.238;2022-08-19T11:01:53;12.98;;;3.97;;
66751;SDS011;53663;42.676;23.238;2022-08-19T11:04:26;7.50;;;3.55;;
66751;SDS011;53663;42.676;23.238;2022-08-19T11:06:52;6.57;;;3.88;;
66751;SDS011;53663;42.676;23.238;2022-08-19T11:09:22;10.82;;;3.58;;
66751;SDS011;53663;42.676;23.238;2022-08-19T11:11:50;9.50;;;3.78;;
66751;SDS011;53663;42.676;23.238;2022-08-19T11:14:17;10.02;;;3.88;;
66751;SDS011;53663;42.676;23.238;2022-08-19T11:16:44;12.90;;;4.20;;
66751;SDS011;53663;42.676;23.238;2022-08-19T11:19:10;9.27;;;3.40;;
66751;SDS011;53663;42.676;23.238;2022-08-19T11:21:41;11.35;;;4.10;;
66751;SDS011;53663;42.676;23.238;2022-08-19T11:24:10;11.05;;;3.95;;
66751;SDS011;53663;42.676;23.238;2022-08-19T11:26:41;13.30;;;3.65;;
66751;SDS011;53663;42.676;23.238;2022-08-19T11:29:09;6.75;;;4.10;;
66751;SDS011;53663;42.676;23.238;2022-08-19T11:31:38;9.07;;;4.18;;
66751;SDS011;53663;42.676;23.238;2022-08-19T11:34:07;7.95;;;3.80;;
66751;SDS011;53663;42.676;23.238;2022-08-19T11:36:37;15.07;;;4.28;;
66751;SDS011;53663;42.676;23.238;2022-08-19T11:39:05;6.82;;;3.78;;
66751;SDS011;53663;42.676;23.238;2022-08-19T11:41:32;6.82;;;4.05;;
66751;SDS011;53663;42.676;23.238;2022-08-19T11:43:57;6.03;;;3.80;;
66751;SDS011;53663;42.676;23.238;2022-08-19T11:46:24;7.82;;;4.28;;
66751;SDS011;53663;42.676;23.238;2022-08-19T11:48:52;10.00;;;4.40;;
66751;SDS011;53663;42.676;23.238;2022-08-19T11:51:20;5.97;;;3.83;;
66751;SDS011;53663;42.676;23.238;2022-08-19T11:53:47;9.77;;;4.00;;
66751;SDS011;53663;42.676;23.238;2022-08-19T11:56:15;11.68;;;4.28;;
66751;SDS011;53663;42.676;23.238;2022-08-19T11:58:40;7.15;;;3.80;;
66751;SDS011;53663;42.676;23.238;2022-08-19T12:01:10;12.68;;;3.80;;
66751;SDS011;53663;42.676;23.238;2022-08-19T12:03:38;7.55;;;3.90;;
66751;SDS011;53663;42.676;23.238;2022-08-19T12:06:08;7.97;;;3.35;;
66751;SDS011;53663;42.676;23.238;2022-08-19T12:08:37;10.68;;;3.95;;
66751;SDS011;53663;42.676;23.238;2022-08-19T12:11:03;13.77;;;3.83;;
66751;SDS011;53663;42.676;23.238;2022-08-19T12:13:30;7.55;;;3.92;;
66751;SDS011;53663;42.676;23.238;2022-08-19T12:15:56;6.03;;;3.70;;
66751;SDS011;53663;42.676;23.238;2022-08-19T12:18:23;11.25;;;3.95;;
66751;SDS011;53663;42.676;23.238;2022-08-19T12:20:50;5.75;;;3.90;;
66751;SDS011;53663;42.676;23.238;2022-08-19T12:23:17;8.70;;;3.58;;
66751;SDS011;53663;42.676;23.238;2022-08-19T12:25:43;9.70;;;4.15;;
66751;SDS011;53663;42.676;23.238;2022-08-19T12:28:20;13.13;;;4.57;;
66751;SDS011;53663;42.676;23.238;2022-08-19T12:30:48;8.75;;;4.00;;
66751;SDS011;53663;42.676;23.238;2022-08-19T12:33:15;9.07;;;4.10;;
66751;SDS011;53663;42.676;23.238;2022-08-19T12:35:41;12.35;;;4.18;;
66751;SDS011;53663;42.676;23.238;2022-08-19T12:38:09;7.82;;;3.60;;
66751;SDS011;53663;42.676;23.238;2022-08-19T12:40:35;6.85;;;3.75;;
66751;SDS011;53663;42.676;23.238;2022-08-19T12:43:00;13.02;;;3.95;;
66751;SDS011;53663;42.676;23.238;2022-08-19T12:45:26;10.27;;;4.10;;
66751;SDS011;53663;42.676;23.238;2022-08-19T12:47:51;8.68;;;3.67;;
66751;SDS011;53663;42.676;23.238;2022-08-19T12:50:18;7.97;;;3.60;;
66751;SDS011;53663;42.676;23.238;2022-08-19T12:52:46;5.05;;;3.80;;
66751;SDS011;53663;42.676;23.238;2022-08-19T12:55:13;7.57;;;3.67;;
66751;SDS011;53663;42.676;23.238;2022-08-19T12:57:38;12.18;;;3.90;;
66751;SDS011;53663;42.676;23.238;2022-08-19T13:00:05;5.40;;;3.53;;
66751;SDS011;53663;42.676;23.238;2022-08-19T13:02:41;9.13;;;3.45;;
66751;SDS011;53663;42.676;23.238;2022-08-19T13:05:11;9.77;;;3.72;;
66751;SDS011;53663;42.676;23.238;2022-08-19T13:07:39;6.95;;;3.55;;
66751;SDS011;53663;42.676;23.238;2022-08-19T13:10:06;8.73;;;3.60;;
66751;SDS011;53663;42.676;23.238;2022-08-19T13:12:34;6.68;;;3.75;;
66751;SDS011;53663;42.676;23.238;2022-08-19T13:14:59;8.98;;;3.65;;
66751;SDS011;53663;42.676;23.238;2022-08-19T13:17:25;8.10;;;3.58;;
66751;SDS011;53663;42.676;23.238;2022-08-19T13:19:52;9.15;;;3.72;;
66751;SDS011;53663;42.676;23.238;2022-08-19T13:22:17;14.10;;;3.60;;
66751;SDS011;53663;42.676;23.238;2022-08-19T13:24:43;5.72;;;3.60;;
66751;SDS011;53663;42.676;23.238;2022-08-19T13:27:08;9.30;;;4.35;;
66751;SDS011;53663;42.676;23.238;2022-08-19T13:29:34;17.25;;;3.75;;
66751;SDS011;53663;42.676;23.238;2022-08-19T13:32:18;10.88;;;3.75;;
66751;SDS011;53663;42.676;23.238;2022-08-19T13:35:03;15.65;;;3.78;;
66751;SDS011;53663;42.676;23.238;2022-08-19T13:37:29;10.68;;;3.97;;
66751;SDS011;53663;42.676;23.238;2022-08-19T13:40:15;9.80;;;3.72;;
66751;SDS011;53663;42.676;23.238;2022-08-19T13:42:44;8.27;;;3.90;;
66751;SDS011;53663;42.676;23.238;2022-08-19T13:45:11;9.68;;;3.90;;
66751;SDS011;53663;42.676;23.238;2022-08-19T13:47:38;12.55;;;3.65;;
66751;SDS011;53663;42.676;23.238;2022-08-19T13:50:13;9.65;;;3.67;;
66751;SDS011;53663;42.676;23.238;2022-08-19T13:52:40;6.53;;;3.70;;
66751;SDS011;53663;42.676;23.238;2022-08-19T13:55:07;6.75;;;3.92;;
66751;SDS011;53663;42.676;23.238;2022-08-19T13:57:34;5.57;;;3.60;;
66751;SDS011;53663;42.676;23.238;2022-08-19T14:00:00;5.53;;;3.50;;
66751;SDS011;53663;42.676;23.238;2022-08-19T14:02:29;12.02;;;4.25;;
66751;SDS011;53663;42.676;23.238;2022-08-19T14:04:55;7.40;;;4.10;;
66751;SDS011;53663;42.676;23.238;2022-08-19T14:07:21;5.40;;;3.53;;
66751;SDS011;53663;42.676;23.238;2022-08-19T14:09:49;7.78;;;3.90;;
66751;SDS011;53663;42.676;23.238;2022-08-19T14:12:18;11.27;;;3.60;;
66751;SDS011;53663;42.676;23.238;2022-08-19T14:14:45;8.70;;;3.60;;
66751;SDS011;53663;42.676;23.238;2022-08-19T14:17:11;7.40;;;3.78;;
66751;SDS011;53663;42.676;23.238;2022-08-19T14:19:37;8.07;;;3.40;;
66751;SDS011;53663;42.676;23.238;2022-08-19T14:22:02;6.95;;;3.90;;
66751;SDS011;53663;42.676;23.238;2022-08-19T14:24:28;5.57;;;3.58;;
66751;SDS011;53663;42.676;23.238;2022-08-19T14:26:54;7.40;;;3.65;;
66751;SDS011;53663;42.676;23.238;2022-08-19T14:29:19;8.63;;;3.78;;
66751;SDS011;53663;42.676;23.238;2022-08-19T14:31:45;8.20;;;4.25;;
66751;SDS011;53663;42.676;23.238;2022-08-19T14:34:10;7.40;;;4.13;;
66751;SDS011;53663;42.676;23.238;2022-08-19T14:36:37;7.18;;;4.30;;
66751;SDS011;53663;42.676;23.238;2022-08-19T14:39:03;6.85;;;4.28;;
66751;SDS011;53663;42.676;23.238;2022-08-19T14:41:29;9.30;;;3.90;;
66751;SDS011;53663;42.676;23.238;2022-08-19T14:43:58;7.75;;;4.03;;
66751;SDS011;53663;42.676;23.238;2022-08-19T14:46:25;11.43;;;4.28;;
66751;SDS011;53663;42.676;23.238;2022-08-19T14:48:52;7.15;;;4.05;;